Time;durP1;ratioP1;P1;durP2;ratioP2;P2;SDS_P1;SDS_P2;PMS_P1;PMS_P2;Temp;Humidity;BMP_temperature;BMP_pressure;BME280_temperature;BME280_humidity;BME280_pressure;Samples;Min_cycle;Max_cycle;Signal;HPM_P1;HPM_P2
2022/11/08 00:03:49;;;;;;;2.38;1.58;;;16.90;64.90;;;;;;5051701;28;20213;-72
2022/11/08 00:14:26;;;;;;;2.17;1.45;;;16.90;65.00;;;;;;5052708;28;20182;-71
2022/11/08 00:16:52;;;;;;;2.67;1.33;;;16.80;65.00;;;;;;5051765;28;20486;-71
2022/11/08 00:19:17;;;;;;;1.23;1.10;;;16.80;65.00;;;;;;5051592;28;20191;-72
2022/11/08 00:21:43;;;;;;;3.22;1.10;;;16.80;65.00;;;;;;5052415;28;20515;-72
2022/11/08 00:24:09;;;;;;;2.85;1.20;;;16.80;65.00;;;;;;5051462;28;20662;-72
2022/11/08 00:26:34;;;;;;;2.20;1.20;;;16.80;65.10;;;;;;5052192;28;21121;-71
2022/11/08 00:29:00;;;;;;;2.72;1.33;;;16.80;65.10;;;;;;5051755;28;20206;-71
2022/11/08 00:31:25;;;;;;;3.25;1.50;;;16.80;65.10;;;;;;5051418;28;20167;-71
2022/11/08 00:33:51;;;;;;;2.65;1.42;;;16.80;65.10;;;;;;5052246;28;20177;-71
2022/11/08 00:36:16;;;;;;;3.45;1.27;;;16.80;65.10;;;;;;5051948;28;20210;-71
2022/11/08 00:38:42;;;;;;;2.75;1.40;;;16.80;65.20;;;;;;5051548;28;20652;-72
2022/11/08 00:41:09;;;;;;;2.17;1.40;;;16.70;65.10;;;;;;5051786;28;20640;-72
2022/11/08 00:43:34;;;;;;;2.03;1.30;;;16.80;65.20;;;;;;5052083;28;20180;-72
2022/11/08 00:46:00;;;;;;;2.33;1.52;;;16.80;65.20;;;;;;5050976;28;20271;-71
2022/11/08 00:48:25;;;;;;;1.58;1.08;;;16.80;66.00;;;;;;5052009;28;20225;-71
2022/11/08 00:50:51;;;;;;;2.17;1.33;;;16.80;65.20;;;;;;5052118;28;20175;-71
2022/11/08 00:53:16;;;;;;;2.17;1.20;;;16.80;65.20;;;;;;5050879;28;20171;-71
2022/11/08 00:55:42;;;;;;;1.83;1.10;;;16.80;65.20;;;;;;5053683;28;20175;-71
2022/11/08 00:58:07;;;;;;;2.05;1.10;;;16.70;65.30;;;;;;5055316;28;20275;-71
2022/11/08 01:00:33;;;;;;;1.70;1.33;;;16.70;65.30;;;;;;5054962;28;20171;-72
2022/11/08 01:05:42;;;;;;;2.28;1.23;;;16.70;65.30;;;;;;5055745;28;20178;-71
2022/11/08 01:08:09;;;;;;;2.65;1.33;;;16.70;65.30;;;;;;5054275;28;20226;-71
2022/11/08 01:10:34;;;;;;;1.42;1.10;;;16.70;65.40;;;;;;5055448;28;20231;-71
2022/11/08 01:13:00;;;;;;;1.90;1.20;;;16.70;65.40;;;;;;5054356;28;20175;-71
2022/11/08 01:15:25;;;;;;;2.45;1.05;;;16.70;65.40;;;;;;5055525;28;20549;-71
2022/11/08 01:17:51;;;;;;;3.88;1.50;;;16.70;65.40;;;;;;5055187;28;20626;-72
2022/11/08 01:20:23;;;;;;;2.40;1.40;;;16.70;65.40;;;;;;5054391;28;20189;-72
2022/11/08 01:22:48;;;;;;;1.65;1.13;;;16.70;65.40;;;;;;5055194;28;20171;-71
2022/11/08 01:25:14;;;;;;;1.55;1.13;;;16.60;65.40;;;;;;5054724;28;20237;-71
2022/11/08 01:27:40;;;;;;;4.05;1.33;;;16.70;65.50;;;;;;5054344;28;20175;-71
2022/11/08 01:30:06;;;;;;;2.15;1.30;;;16.70;65.50;;;;;;5054858;28;20225;-71
2022/11/08 01:32:32;;;;;;;1.05;0.90;;;16.60;65.50;;;;;;5055026;28;20630;-71
2022/11/08 01:34:58;;;;;;;1.67;1.10;;;16.60;65.50;;;;;;5054055;28;20221;-71
2022/11/08 01:37:23;;;;;;;1.98;1.15;;;16.60;65.50;;;;;;5055030;28;20591;-72
2022/11/08 01:39:49;;;;;;;2.42;1.10;;;16.60;65.50;;;;;;5054874;28;20710;-72
2022/11/08 01:42:14;;;;;;;2.00;1.20;;;16.60;65.60;;;;;;5054154;28;20171;-71
2022/11/08 01:45:35;;;;;;;4.10;1.50;;;16.60;65.60;;;;;;5055018;28;20167;-72
2022/11/08 01:48:00;;;;;;;1.77;1.30;;;16.60;65.70;;;;;;5031618;28;20176;-71
2022/11/08 01:50:26;;;;;;;1.83;1.38;;;16.60;65.70;;;;;;5053347;28;20560;-71
2022/11/08 01:52:52;;;;;;;2.08;1.00;;;16.60;65.70;;;;;;5053731;28;20175;-71
2022/11/08 01:55:24;;;;;;;2.38;1.13;;;16.60;65.80;;;;;;5052525;28;20190;-71
2022/11/08 01:57:58;;;;;;;2.28;1.08;;;16.60;65.80;;;;;;5053409;28;20179;-71
2022/11/08 02:00:24;;;;;;;1.17;1.02;;;16.60;65.80;;;;;;5053459;28;20183;-71
2022/11/08 02:02:59;;;;;;;2.75;1.17;;;17.00;66.10;;;;;;5054091;28;20254;-72
2022/11/08 02:05:25;;;;;;;1.98;1.02;;;16.60;66.00;;;;;;5054657;28;20190;-71
2022/11/08 02:07:56;;;;;;;2.33;1.15;;;16.60;66.00;;;;;;5053007;28;20179;-71
2022/11/08 02:10:23;;;;;;;2.28;1.08;;;16.60;65.90;;;;;;5052577;28;20187;-71
2022/11/08 02:12:49;;;;;;;1.85;1.27;;;16.50;65.90;;;;;;5054189;28;20186;-71
2022/11/08 02:15:15;;;;;;;2.13;1.20;;;16.50;65.90;;;;;;5054320;28;20198;-72
2022/11/08 02:17:40;;;;;;;1.85;1.20;;;16.50;65.90;;;;;;5052255;28;20513;-72
2022/11/08 02:20:06;;;;;;;3.85;1.25;;;16.50;66.00;;;;;;5053826;28;20179;-72
2022/11/08 02:22:34;;;;;;;1.77;1.20;;;16.50;66.00;;;;;;5054320;28;20176;-72
2022/11/08 02:24:59;;;;;;;2.05;1.30;;;16.50;66.10;;;;;;5052090;28;20228;-71
2022/11/08 02:27:25;;;;;;;1.80;1.25;;;16.50;66.10;;;;;;5052859;28;20171;-71
2022/11/08 02:29:54;;;;;;;1.48;0.90;;;16.50;66.10;;;;;;5054128;28;20250;-72
2022/11/08 02:32:19;;;;;;;1.48;1.20;;;16.50;66.20;;;;;;5053158;28;20190;-71
2022/11/08 02:34:48;;;;;;;2.20;1.35;;;16.50;66.20;;;;;;5054041;28;20626;-71
2022/11/08 02:37:14;;;;;;;1.45;0.95;;;16.50;66.20;;;;;;5051705;28;20167;-71
2022/11/08 02:39:39;;;;;;;2.08;1.02;;;16.50;66.20;;;;;;5052605;28;20175;-72
2022/11/08 02:42:11;;;;;;;1.25;0.90;;;16.50;66.20;;;;;;5053580;28;20182;-72
2022/11/08 02:44:36;;;;;;;2.13;1.25;;;16.50;66.20;;;;;;5053232;28;20180;-72
2022/11/08 02:47:02;;;;;;;1.25;0.98;;;16.50;66.30;;;;;;5053323;28;20496;-71
2022/11/08 02:49:27;;;;;;;2.70;1.05;;;16.50;66.20;;;;;;5053593;28;20689;-71
2022/11/08 02:51:53;;;;;;;2.20;1.13;;;16.50;66.30;;;;;;5052934;28;20217;-71
2022/11/08 02:54:18;;;;;;;0.85;0.80;;;16.50;66.30;;;;;;5053241;28;20233;-70
2022/11/08 02:56:44;;;;;;;1.38;1.25;;;16.50;66.30;;;;;;5053431;28;20638;-72
2022/11/08 02:59:09;;;;;;;1.80;0.90;;;16.50;66.40;;;;;;5052538;28;20225;-72
2022/11/08 03:01:35;;;;;;;1.13;0.90;;;16.50;66.30;;;;;;5053380;28;20217;-71
2022/11/08 03:04:00;;;;;;;1.73;0.90;;;16.50;66.30;;;;;;5053121;28;20193;-72
2022/11/08 03:06:26;;;;;;;2.55;1.33;;;16.50;66.30;;;;;;5052582;28;20163;-71
2022/11/08 03:08:51;;;;;;;1.23;1.10;;;16.50;66.40;;;;;;5052868;28;20310;-70
2022/11/08 03:11:17;;;;;;;1.98;1.10;;;16.50;66.40;;;;;;5053065;28;20278;-71
2022/11/08 03:13:42;;;;;;;1.67;1.05;;;16.40;66.30;;;;;;5052597;28;20255;-71
2022/11/08 03:16:08;;;;;;;1.17;0.93;;;16.40;66.30;;;;;;5052984;28;20262;-72
2022/11/08 03:18:33;;;;;;;2.05;1.05;;;16.50;66.40;;;;;;5052781;28;20253;-72
2022/11/08 03:21:00;;;;;;;1.73;1.27;;;16.40;66.40;;;;;;5052136;28;20175;-71
2022/11/08 03:23:26;;;;;;;1.45;1.10;;;16.40;66.30;;;;;;5052986;28;20179;-71
2022/11/08 03:25:51;;;;;;;1.70;1.35;;;16.40;66.30;;;;;;5052873;28;20228;-71
2022/11/08 03:28:17;;;;;;;1.10;1.00;;;16.40;66.30;;;;;;5051851;28;20213;-71
2022/11/08 03:30:42;;;;;;;2.05;1.27;;;16.40;66.40;;;;;;5053095;28;20187;-71
2022/11/08 03:33:08;;;;;;;2.28;1.05;;;16.40;66.40;;;;;;5052738;28;20175;-70
2022/11/08 03:35:33;;;;;;;1.50;1.20;;;16.40;66.40;;;;;;5052139;28;20175;-72
2022/11/08 03:37:59;;;;;;;2.53;1.00;;;16.40;66.30;;;;;;5052570;28;20167;-71
2022/11/08 03:40:24;;;;;;;1.00;0.73;;;16.40;66.30;;;;;;5052883;28;20182;-72
2022/11/08 03:42:50;;;;;;;1.77;1.02;;;16.40;66.30;;;;;;5052210;28;20548;-72
2022/11/08 03:45:15;;;;;;;1.55;1.10;;;16.40;66.30;;;;;;5052307;28;20544;-71
2022/11/08 03:47:41;;;;;;;1.40;1.00;;;16.40;66.20;;;;;;5052058;28;20532;-72
2022/11/08 03:50:07;;;;;;;1.05;0.80;;;16.40;66.30;;;;;;5052233;28;20237;-71
2022/11/08 03:52:43;;;;;;;1.92;0.90;;;16.40;66.20;;;;;;5052513;28;20689;-71
2022/11/08 03:55:09;;;;;;;2.15;1.00;;;16.40;66.20;;;;;;5051427;28;20179;-71
2022/11/08 03:57:35;;;;;;;1.00;0.85;;;16.40;66.20;;;;;;5052717;28;20259;-71
2022/11/08 04:00:01;;;;;;;1.73;1.02;;;16.40;66.20;;;;;;5052272;28;20171;-71
2022/11/08 04:02:26;;;;;;;2.50;1.23;;;16.40;66.20;;;;;;5051808;28;20175;-71
2022/11/08 04:04:52;;;;;;;1.67;0.90;;;16.40;66.30;;;;;;5052506;28;20262;-71
2022/11/08 04:07:17;;;;;;;1.85;1.10;;;16.30;66.10;;;;;;5052201;28;20183;-71
2022/11/08 04:09:43;;;;;;;2.15;1.10;;;16.40;66.20;;;;;;5051441;28;20231;-71
2022/11/08 04:23:04;;;;;;;1.60;1.30;;;16.30;65.90;;;;;;5051370;28;20594;-72
2022/11/08 04:25:30;;;;;;;1.17;1.05;;;16.40;66.00;;;;;;5052312;28;20250;-71
2022/11/08 04:27:55;;;;;;;2.17;1.10;;;16.40;66.00;;;;;;5052312;28;20175;-71
2022/11/08 04:30:21;;;;;;;0.80;0.80;;;16.30;66.00;;;;;;5052576;28;20638;-71
2022/11/08 04:32:46;;;;;;;1.98;0.80;;;16.30;66.00;;;;;;5056134;28;20171;-72
2022/11/08 04:35:12;;;;;;;1.98;1.10;;;16.30;65.90;;;;;;5055887;28;20167;-71
2022/11/08 04:37:37;;;;;;;1.23;0.90;;;16.30;65.90;;;;;;5055526;28;20178;-72
2022/11/08 04:40:03;;;;;;;2.15;1.08;;;16.30;65.90;;;;;;5055912;28;20174;-71
2022/11/08 04:42:28;;;;;;;2.20;0.80;;;16.30;65.90;;;;;;5056026;28;20175;-71
2022/11/08 04:44:54;;;;;;;1.38;0.88;;;16.30;65.90;;;;;;5055181;28;20183;-73
2022/11/08 04:47:19;;;;;;;1.52;1.00;;;16.30;65.90;;;;;;5055639;28;20209;-72
2022/11/08 04:49:45;;;;;;;1.27;0.90;;;16.30;65.90;;;;;;5055925;28;20310;-72
2022/11/08 04:52:10;;;;;;;1.05;0.88;;;16.30;65.90;;;;;;5054973;28;20171;-70
2022/11/08 04:54:36;;;;;;;1.48;0.95;;;16.30;65.80;;;;;;5055987;28;20175;-71
2022/11/08 04:57:02;;;;;;;1.30;0.90;;;16.30;65.80;;;;;;5055642;28;20264;-71
2022/11/08 04:59:27;;;;;;;1.27;1.02;;;16.30;66.70;;;;;;5054929;28;20229;-71
2022/11/08 05:01:53;;;;;;;1.20;0.82;;;16.30;65.80;;;;;;5055604;28;20175;-72
2022/11/08 05:04:18;;;;;;;1.90;0.95;;;16.30;65.90;;;;;;5055511;28;20171;-71
2022/11/08 05:06:44;;;;;;;2.30;1.35;;;16.30;65.90;;;;;;5054982;28;20554;-71
2022/11/08 05:09:09;;;;;;;1.95;1.10;;;16.30;65.80;;;;;;5054994;28;20693;-71
2022/11/08 05:11:35;;;;;;;1.63;0.90;;;16.30;65.80;;;;;;5055456;28;20172;-71
2022/11/08 05:14:00;;;;;;;1.77;1.00;;;16.30;65.90;;;;;;5054795;28;20635;-72
2022/11/08 05:16:28;;;;;;;1.80;0.98;;;16.30;65.80;;;;;;5055358;28;20183;-72
2022/11/08 05:18:53;;;;;;;2.15;1.13;;;16.30;65.90;;;;;;5055609;28;20202;-72
2022/11/08 05:24:04;;;;;;;1.02;0.93;;;16.20;65.80;;;;;;5055044;28;20687;-71
2022/11/08 05:26:32;;;;;;;2.22;1.10;;;16.30;65.80;;;;;;5054639;28;20178;-72
2022/11/08 05:28:57;;;;;;;1.45;0.82;;;16.30;65.80;;;;;;5053727;28;20195;-72
2022/11/08 05:31:23;;;;;;;1.20;1.10;;;16.30;65.90;;;;;;5055555;28;20178;-71
2022/11/08 05:33:51;;;;;;;1.10;1.00;;;16.30;65.90;;;;;;5054487;28;20178;-71
2022/11/08 05:36:17;;;;;;;0.75;0.75;;;16.20;65.90;;;;;;5054642;28;20175;-71
2022/11/08 05:38:42;;;;;;;1.65;1.13;;;16.20;65.80;;;;;;5054970;28;20186;-72
2022/11/08 05:41:16;;;;;;;1.77;1.30;;;16.20;65.80;;;;;;5053394;28;20641;-72
2022/11/08 05:43:42;;;;;;;1.40;1.23;;;16.20;65.90;;;;;;5055012;28;20179;-72
2022/11/08 05:46:07;;;;;;;1.33;0.95;;;16.20;65.80;;;;;;5054669;28;20172;-72
2022/11/08 05:48:33;;;;;;;1.27;0.80;;;16.20;65.80;;;;;;5054206;28;20207;-72
2022/11/08 05:50:58;;;;;;;1.52;0.88;;;16.30;65.90;;;;;;5054524;28;20174;-72
2022/11/08 05:53:24;;;;;;;1.10;1.00;;;16.20;65.80;;;;;;5054541;28;20176;-71
2022/11/08 05:55:49;;;;;;;2.20;1.00;;;16.20;65.80;;;;;;5053783;28;20657;-72
2022/11/08 05:58:15;;;;;;;1.52;1.00;;;16.20;65.90;;;;;;5054437;28;20190;-72
2022/11/08 06:00:41;;;;;;;1.08;0.80;;;16.20;65.90;;;;;;5054727;28;20179;-72
2022/11/08 06:03:06;;;;;;;1.33;0.90;;;16.20;65.90;;;;;;5053630;28;20170;-72
2022/11/08 06:05:32;;;;;;;0.98;0.80;;;16.20;65.90;;;;;;5054514;28;20174;-72
2022/11/08 06:07:57;;;;;;;0.70;0.70;;;16.20;65.90;;;;;;5054000;28;20595;-71
2022/11/08 06:10:23;;;;;;;1.38;0.88;;;16.20;66.00;;;;;;5053432;28;20305;-71
2022/11/08 06:12:48;;;;;;;1.55;0.90;;;16.20;66.00;;;;;;5054436;28;20199;-72
2022/11/08 06:15:14;;;;;;;1.20;1.10;;;16.20;65.90;;;;;;5053609;28;20175;-72
2022/11/08 06:17:40;;;;;;;1.17;0.90;;;16.20;66.00;;;;;;5054202;28;20178;-72
2022/11/08 06:20:06;;;;;;;0.80;0.80;;;16.20;65.90;;;;;;5053900;28;20179;-72
2022/11/08 06:22:32;;;;;;;1.08;0.90;;;16.20;65.90;;;;;;5053448;28;20248;-72
2022/11/08 06:24:58;;;;;;;1.77;1.20;;;16.20;66.70;;;;;;5053614;28;20233;-72
2022/11/08 06:27:24;;;;;;;1.75;1.08;;;16.20;65.90;;;;;;5053884;28;20171;-72
2022/11/08 06:29:49;;;;;;;1.13;0.88;;;16.20;65.90;;;;;;5053245;28;20245;-72
2022/11/08 06:32:15;;;;;;;0.95;0.85;;;16.20;65.90;;;;;;5053532;28;20178;-71
2022/11/08 06:34:40;;;;;;;1.17;1.10;;;16.20;65.90;;;;;;5053994;28;20212;-71
2022/11/08 06:37:06;;;;;;;1.40;0.95;;;16.20;66.00;;;;;;5053358;28;20168;-72
2022/11/08 06:39:31;;;;;;;1.70;0.95;;;16.20;66.00;;;;;;5054470;28;20171;-72
2022/11/08 06:41:57;;;;;;;2.28;1.00;;;16.20;66.00;;;;;;5054059;28;20174;-72
2022/11/08 06:44:22;;;;;;;1.27;0.88;;;16.20;66.00;;;;;;5053633;28;20187;-72
2022/11/08 06:46:48;;;;;;;0.75;0.75;;;16.20;66.00;;;;;;5054255;28;20175;-72
2022/11/08 06:49:13;;;;;;;1.38;0.80;;;16.20;66.00;;;;;;5053656;28;20273;-72
2022/11/08 06:51:39;;;;;;;0.95;0.80;;;16.20;66.00;;;;;;5053368;28;20167;-71
2022/11/08 06:54:07;;;;;;;0.88;0.80;;;16.20;66.00;;;;;;5052800;28;20269;-72
2022/11/08 06:56:33;;;;;;;0.90;0.90;;;16.20;66.00;;;;;;5054086;28;20214;-72
2022/11/08 06:58:59;;;;;;;1.02;0.90;;;16.20;66.00;;;;;;5053022;28;20211;-73
2022/11/08 07:01:24;;;;;;;0.88;0.88;;;16.20;66.00;;;;;;5053746;28;20177;-71
2022/11/08 07:03:50;;;;;;;1.42;0.80;;;16.20;66.00;;;;;;5053699;28;20179;-72
2022/11/08 07:06:15;;;;;;;1.10;1.00;;;16.20;66.00;;;;;;5052721;28;20209;-71
2022/11/08 07:08:41;;;;;;;1.25;1.05;;;16.20;66.00;;;;;;5053328;28;20273;-70
2022/11/08 07:11:07;;;;;;;1.05;0.85;;;16.20;66.00;;;;;;5053507;28;20237;-72
2022/11/08 07:13:33;;;;;;;2.25;1.20;;;16.20;65.90;;;;;;5052809;28;20661;-71
2022/11/08 07:15:59;;;;;;;0.80;0.80;;;16.20;65.90;;;;;;5053179;28;20183;-72
2022/11/08 07:18:24;;;;;;;1.70;1.02;;;16.20;65.80;;;;;;5053531;28;20175;-72
2022/11/08 07:20:51;;;;;;;1.13;0.93;;;16.30;65.80;;;;;;5052608;28;20171;-72
2022/11/08 07:23:16;;;;;;;1.58;1.30;;;16.30;65.90;;;;;;5053020;28;20492;-71
2022/11/08 07:25:42;;;;;;;2.50;1.42;;;16.30;66.10;;;;;;5052925;28;20545;-71
2022/11/08 07:28:11;;;;;;;2.30;1.02;;;16.30;65.90;;;;;;5053222;28;20183;-71
2022/11/08 07:30:37;;;;;;;1.02;0.93;;;16.30;65.70;;;;;;5053323;28;20645;-71
2022/11/08 07:33:02;;;;;;;2.75;1.17;;;16.40;65.70;;;;;;5052243;28;20175;-74
2022/11/08 07:35:28;;;;;;;1.90;0.98;;;16.50;65.80;;;;;;5053130;28;20183;-74
2022/11/08 07:37:54;;;;;;;1.90;1.08;;;16.50;65.60;;;;;;5053078;28;20182;-72
2022/11/08 07:40:19;;;;;;;5.32;1.20;;;16.70;65.60;;;;;;5054460;28;20171;-77
2022/11/08 07:42:45;;;;;;;3.70;1.17;;;16.90;65.50;;;;;;5053274;28;20171;-75
2022/11/08 07:45:10;;;;;;;2.83;1.00;;;17.10;65.20;;;;;;5052900;28;20178;-75
2022/11/08 07:47:36;;;;;;;3.10;1.20;;;17.30;64.90;;;;;;5052343;28;20544;-73
2022/11/08 07:50:01;;;;;;;5.05;1.55;;;17.50;64.40;;;;;;5052699;28;20305;-70
2022/11/08 07:52:27;;;;;;;2.90;1.23;;;17.80;63.70;;;;;;5052881;28;20171;-71
2022/11/08 07:54:52;;;;;;;3.47;1.15;;;18.10;63.20;;;;;;5052394;28;20664;-72
2022/11/08 07:57:18;;;;;;;2.40;1.17;;;18.30;62.60;;;;;;5052677;28;20641;-73
2022/11/08 07:59:43;;;;;;;3.95;1.15;;;18.40;62.00;;;;;;5052912;28;20175;-72
2022/11/08 08:02:10;;;;;;;2.88;1.08;;;18.50;61.70;;;;;;5051547;28;20186;-72
2022/11/08 08:04:35;;;;;;;4.50;1.27;;;18.70;61.30;;;;;;5052650;28;20171;-73
2022/11/08 08:07:01;;;;;;;2.25;1.20;;;18.70;61.10;;;;;;5052098;28;20193;-72
2022/11/08 08:09:26;;;;;;;2.92;1.15;;;18.80;60.90;;;;;;5051658;28;20724;-72
2022/11/08 08:11:52;;;;;;;2.85;1.40;;;18.80;61.00;;;;;;5053002;28;20174;-72
2022/11/08 08:14:17;;;;;;;3.20;1.10;;;18.70;60.90;;;;;;5052620;28;20701;-73
2022/11/08 08:16:43;;;;;;;4.20;1.20;;;18.60;61.50;;;;;;5052157;28;20541;-72
2022/11/08 08:19:08;;;;;;;5.88;1.42;;;18.60;61.70;;;;;;5052536;28;20174;-73
2022/11/08 08:21:34;;;;;;;4.68;1.20;;;18.40;61.70;;;;;;5052631;28;20174;-73
2022/11/08 08:23:59;;;;;;;2.17;1.08;;;18.40;61.90;;;;;;5051511;28;20241;-74
2022/11/08 08:26:25;;;;;;;4.25;1.48;;;18.30;62.30;;;;;;5052726;28;20643;-75
2022/11/08 08:28:50;;;;;;;2.33;1.00;;;18.20;62.50;;;;;;5052215;28;20662;-74
2022/11/08 08:31:16;;;;;;;1.42;0.95;;;18.10;62.70;;;;;;5051846;28;20172;-75
2022/11/08 08:33:41;;;;;;;5.07;1.40;;;18.00;62.90;;;;;;5052540;28;20171;-75
2022/11/08 08:36:07;;;;;;;3.08;1.40;;;18.00;63.10;;;;;;5051463;28;20182;-75
2022/11/08 08:38:33;;;;;;;2.83;1.02;;;18.00;63.30;;;;;;5052521;28;20175;-74
2022/11/08 08:40:59;;;;;;;1.98;1.08;;;17.90;63.40;;;;;;5052350;28;20187;-73
2022/11/08 08:43:26;;;;;;;2.40;1.23;;;17.80;63.40;;;;;;5052062;28;20182;-72
2022/11/08 08:45:53;;;;;;;2.72;1.02;;;17.90;63.60;;;;;;5052536;28;20265;-73
2022/11/08 08:48:18;;;;;;;2.25;1.00;;;17.90;63.60;;;;;;5052038;28;20634;-73
2022/11/08 08:50:44;;;;;;;2.42;1.25;;;18.00;63.70;;;;;;5051751;28;20179;-74
2022/11/08 08:53:09;;;;;;;2.40;1.33;;;18.00;63.60;;;;;;5052014;28;20237;-73
2022/11/08 08:55:36;;;;;;;2.15;1.10;;;18.00;63.50;;;;;;5052515;28;20646;-74
2022/11/08 08:58:02;;;;;;;1.85;1.00;;;18.00;63.50;;;;;;5050722;28;20258;-74
2022/11/08 09:00:28;;;;;;;2.15;1.10;;;18.00;63.70;;;;;;5052519;28;20254;-73
2022/11/08 09:02:53;;;;;;;4.07;1.50;;;18.00;63.70;;;;;;5052382;28;20171;-74
2022/11/08 09:05:19;;;;;;;1.40;1.20;;;17.90;63.70;;;;;;5051206;28;20164;-75
2022/11/08 09:07:44;;;;;;;2.80;1.13;;;18.00;63.80;;;;;;5051796;28;20634;-75
2022/11/08 09:10:10;;;;;;;1.80;1.00;;;18.00;63.70;;;;;;5051526;28;20234;-76
2022/11/08 09:12:35;;;;;;;3.08;1.15;;;18.00;63.80;;;;;;5051671;28;20167;-75
2022/11/08 09:15:01;;;;;;;1.85;1.30;;;18.00;63.70;;;;;;5052016;28;20182;-75
2022/11/08 09:17:27;;;;;;;1.45;1.08;;;18.00;63.50;;;;;;5055062;28;20228;-75
2022/11/08 09:19:53;;;;;;;2.05;0.95;;;18.00;63.50;;;;;;5055100;28;20171;-74
2022/11/08 09:22:18;;;;;;;1.58;0.98;;;17.90;63.50;;;;;;5055405;28;20279;-75
2022/11/08 09:24:44;;;;;;;1.90;1.10;;;18.00;63.50;;;;;;5055948;28;20171;-74
2022/11/08 09:27:09;;;;;;;2.85;0.90;;;18.00;63.60;;;;;;5054806;28;20213;-76
2022/11/08 09:29:35;;;;;;;2.67;1.48;;;18.00;63.70;;;;;;5055512;28;20644;-75
2022/11/08 09:32:00;;;;;;;1.55;1.08;;;18.00;63.80;;;;;;5055198;28;20704;-75
2022/11/08 09:34:26;;;;;;;2.13;1.08;;;17.90;63.70;;;;;;5054775;28;20255;-75
2022/11/08 09:36:52;;;;;;;1.17;0.90;;;18.00;63.80;;;;;;5055460;28;20180;-74
2022/11/08 09:39:17;;;;;;;1.27;1.17;;;17.90;63.60;;;;;;5054643;28;20183;-75
2022/11/08 09:41:49;;;;;;;1.33;0.90;;;17.90;63.70;;;;;;5055452;28;20171;-75
2022/11/08 09:44:21;;;;;;;3.47;1.00;;;17.90;63.80;;;;;;5053859;28;20171;-73
2022/11/08 09:46:54;;;;;;;1.67;1.05;;;17.90;63.70;;;;;;5053397;28;20175;-74
2022/11/08 09:49:41;;;;;;;2.05;1.00;;;17.90;63.80;;;;;;5038003;28;20227;-74
2022/11/08 09:52:08;;;;;;;1.30;1.08;;;17.90;63.80;;;;;;5053992;28;20179;-75
2022/11/08 09:54:37;;;;;;;1.55;0.98;;;17.90;63.80;;;;;;5036852;28;20253;-74
2022/11/08 09:57:04;;;;;;;1.30;1.10;;;17.90;63.70;;;;;;5053810;28;20179;-73
2022/11/08 09:59:38;;;;;;;1.70;1.00;;;17.90;63.70;;;;;;5037481;28;20175;-73
2022/11/08 10:02:33;;;;;;;1.15;1.02;;;17.90;63.70;;;;;;5037512;28;20179;-75
2022/11/08 10:05:01;;;;;;;1.35;0.98;;;17.80;63.70;;;;;;5049035;28;20210;-75
2022/11/08 10:07:32;;;;;;;3.45;1.00;;;17.80;63.90;;;;;;5054183;28;20175;-74
2022/11/08 10:10:07;;;;;;;3.35;1.30;;;17.80;64.00;;;;;;5054298;28;20294;-75
2022/11/08 10:12:51;;;;;;;1.70;1.10;;;17.90;64.00;;;;;;5054954;28;20166;-74
2022/11/08 10:15:48;;;;;;;2.67;1.20;;;17.90;63.90;;;;;;5052942;28;20277;-74
2022/11/08 10:18:35;;;;;;;1.05;0.95;;;17.90;63.90;;;;;;5054393;28;20254;-73
2022/11/08 10:21:34;;;;;;;1.45;0.70;;;17.90;63.90;;;;;;5053442;28;20174;-72
2022/11/08 10:24:15;;;;;;;3.35;1.10;;;17.80;63.90;;;;;;5053136;28;20171;-73
2022/11/08 10:26:44;;;;;;;2.65;1.20;;;17.90;64.00;;;;;;5053721;28;20171;-75
2022/11/08 10:29:21;;;;;;;1.73;1.00;;;17.80;63.90;;;;;;5053364;28;20609;-72
2022/11/08 10:31:51;;;;;;;3.22;1.33;;;17.90;64.20;;;;;;5053504;28;20262;-71
2022/11/08 10:34:19;;;;;;;2.00;1.30;;;17.80;64.30;;;;;;5054164;28;20179;-72
2022/11/08 10:36:46;;;;;;;3.88;0.93;;;17.90;64.10;;;;;;5053714;28;20234;-72
2022/11/08 10:39:20;;;;;;;1.30;0.85;;;17.90;64.20;;;;;;5052835;28;20175;-74
2022/11/08 10:41:59;;;;;;;2.95;1.27;;;17.90;64.10;;;;;;5037774;28;20623;-72
2022/11/08 10:44:25;;;;;;;1.40;1.02;;;17.90;64.20;;;;;;5052351;28;20540;-72
2022/11/08 10:46:56;;;;;;;1.88;1.30;;;17.90;64.20;;;;;;5053006;28;20167;-73
2022/11/08 10:49:30;;;;;;;2.85;1.30;;;17.90;64.30;;;;;;5052808;28;20211;-74
2022/11/08 10:52:00;;;;;;;2.15;1.00;;;17.80;64.30;;;;;;5053626;28;20201;-75
2022/11/08 10:54:47;;;;;;;5.90;1.08;;;18.10;64.60;;;;;;5053416;28;20175;-75
2022/11/08 10:57:22;;;;;;;4.10;1.20;;;17.80;64.40;;;;;;5061597;28;20167;-75
2022/11/08 10:59:48;;;;;;;3.13;1.10;;;17.80;64.50;;;;;;5067535;28;20655;-74
2022/11/08 11:02:32;;;;;;;2.50;1.23;;;17.70;64.50;;;;;;5072275;28;20174;-73
2022/11/08 11:05:31;;;;;;;0.98;0.88;;;17.70;64.70;;;;;;5031849;28;20191;-75
2022/11/08 11:08:01;;;;;;;1.25;0.90;;;17.70;64.80;;;;;;5033438;28;20183;-76
2022/11/08 11:10:32;;;;;;;2.08;1.20;;;17.70;64.80;;;;;;5033593;28;20551;-76
2022/11/08 11:13:07;;;;;;;1.50;0.98;;;17.60;64.90;;;;;;5066145;28;20171;-73
2022/11/08 11:15:38;;;;;;;3.67;1.15;;;17.60;64.90;;;;;;5072483;28;20178;-75
2022/11/08 11:18:05;;;;;;;1.65;0.90;;;17.60;65.00;;;;;;5072422;28;20300;-76
2022/11/08 11:20:30;;;;;;;2.97;1.08;;;17.60;64.90;;;;;;5074389;28;20208;-76
2022/11/08 11:22:56;;;;;;;4.55;1.27;;;17.60;65.00;;;;;;5073415;28;20645;-70
2022/11/08 11:25:22;;;;;;;1.88;1.10;;;17.60;65.10;;;;;;5054648;28;20177;-70
2022/11/08 11:27:58;;;;;;;1.45;1.10;;;17.60;65.00;;;;;;5072080;28;20178;-71
2022/11/08 11:30:32;;;;;;;1.85;0.90;;;17.60;65.00;;;;;;5032654;28;20215;-70
2022/11/08 11:33:07;;;;;;;1.63;1.05;;;17.70;65.00;;;;;;5032424;28;20237;-71
2022/11/08 11:35:45;;;;;;;3.35;1.20;;;17.60;64.90;;;;;;5047917;28;20633;-71
2022/11/08 11:38:26;;;;;;;4.38;1.20;;;17.60;64.80;;;;;;5051985;28;20258;-73
2022/11/08 11:40:52;;;;;;;1.85;1.25;;;17.60;64.90;;;;;;5051307;28;20183;-70
2022/11/08 11:43:26;;;;;;;1.20;0.90;;;17.70;64.80;;;;;;5051686;28;20179;-70
2022/11/08 11:45:56;;;;;;;3.85;1.15;;;17.60;64.80;;;;;;5051227;28;20182;-71
2022/11/08 11:48:27;;;;;;;1.60;1.08;;;17.60;64.80;;;;;;5052028;28;20186;-71
2022/11/08 11:50:53;;;;;;;3.58;1.17;;;17.60;64.90;;;;;;5052790;28;20548;-75
2022/11/08 11:53:25;;;;;;;1.02;0.90;;;17.60;65.00;;;;;;5050931;28;20175;-72
2022/11/08 11:55:59;;;;;;;3.80;1.10;;;17.60;65.10;;;;;;5053162;28;20258;-76
2022/11/08 11:58:46;;;;;;;1.08;0.80;;;17.60;65.50;;;;;;5052844;28;20308;-72
2022/11/08 12:01:34;;;;;;;2.60;1.10;;;17.60;65.50;;;;;;5050906;28;20171;-69
2022/11/08 12:04:09;;;;;;;0.90;0.75;;;17.60;65.30;;;;;;5066664;28;20189;-67
2022/11/08 12:06:52;;;;;;;2.13;1.10;;;17.60;65.20;;;;;;5071624;28;20215;-74
2022/11/08 12:09:25;;;;;;;2.55;0.82;;;17.50;65.50;;;;;;5070857;28;20240;-74
2022/11/08 12:12:02;;;;;;;4.28;1.30;;;17.60;65.40;;;;;;5071906;28;20190;-77
2022/11/08 12:14:48;;;;;;;1.52;0.80;;;17.60;65.50;;;;;;5072177;28;20174;-70
2022/11/08 12:17:28;;;;;;;2.08;1.20;;;17.50;65.70;;;;;;5071201;28;20182;-71
2022/11/08 12:20:06;;;;;;;2.40;0.88;;;17.50;65.50;;;;;;5071655;28;20660;-72
2022/11/08 12:22:46;;;;;;;2.47;1.00;;;17.50;65.60;;;;;;5071141;28;20209;-76
2022/11/08 12:25:40;;;;;;;4.80;1.00;;;17.60;65.60;;;;;;5071371;28;20174;-72
2022/11/08 12:28:24;;;;;;;2.80;1.10;;;17.50;65.30;;;;;;5070452;28;20621;-72
2022/11/08 12:30:57;;;;;;;4.00;1.35;;;17.50;65.60;;;;;;5071772;28;20213;-71
2022/11/08 12:33:35;;;;;;;3.38;1.20;;;17.50;65.70;;;;;;5072581;28;20170;-74
2022/11/08 12:36:26;;;;;;;2.50;1.10;;;17.50;65.40;;;;;;5054698;28;20675;-73
2022/11/08 12:39:09;;;;;;;3.10;1.20;;;17.50;65.50;;;;;;5071536;28;20538;-73
2022/11/08 12:41:59;;;;;;;3.38;1.10;;;17.50;65.50;;;;;;5071395;28;20604;-72
2022/11/08 12:44:49;;;;;;;1.35;1.08;;;17.40;65.50;;;;;;5072037;28;20249;-71
2022/11/08 12:47:33;;;;;;;2.47;1.10;;;17.40;65.50;;;;;;5071390;28;20171;-72
2022/11/08 12:50:10;;;;;;;1.30;0.90;;;17.40;65.60;;;;;;5070500;28;20264;-73
2022/11/08 12:53:13;;;;;;;4.00;1.23;;;17.30;65.70;;;;;;5074523;28;20253;-72
2022/11/08 12:55:40;;;;;;;3.47;1.00;;;17.30;65.70;;;;;;5076408;28;20174;-73
2022/11/08 12:58:37;;;;;;;1.63;1.02;;;17.30;65.90;;;;;;5057621;28;20283;-72
2022/11/08 13:01:05;;;;;;;1.35;1.25;;;17.20;65.80;;;;;;5072666;28;20225;-72
2022/11/08 13:03:48;;;;;;;2.42;1.15;;;17.20;65.90;;;;;;5046453;28;20245;-74
2022/11/08 13:06:33;;;;;;;1.38;0.80;;;17.20;66.00;;;;;;5056003;28;20526;-74
2022/11/08 13:09:17;;;;;;;1.85;0.80;;;17.20;66.00;;;;;;5055624;28;20281;-73
2022/11/08 13:12:00;;;;;;;3.78;0.80;;;17.20;66.00;;;;;;5054282;28;20179;-73
2022/11/08 13:14:25;;;;;;;1.50;0.85;;;17.10;66.00;;;;;;5055940;28;20716;-73
2022/11/08 13:17:13;;;;;;;1.35;0.90;;;17.20;66.10;;;;;;5054920;28;20206;-72
2022/11/08 13:19:50;;;;;;;2.35;0.90;;;17.10;66.00;;;;;;5055405;28;20186;-72
2022/11/08 13:22:28;;;;;;;3.60;1.40;;;17.20;66.10;;;;;;5055613;28;20340;-72
2022/11/08 13:24:55;;;;;;;1.38;0.90;;;17.10;66.00;;;;;;5054993;28;20592;-72